Time;durP1;ratioP1;P1;durP2;ratioP2;P2;SDS_P1;SDS_P2;PMS_P1;PMS_P2;Temp;Humidity;BMP_temperature;BMP_pressure;BME280_temperature;BME280_humidity;BME280_pressure;Samples;Min_cycle;Max_cycle;Signal;HPM_P1;HPM_P2
2023/07/03 00:00:51;;;;;;;33.58;6.00;;;;;;;;;;4900694;28;92626;-80
2023/07/03 00:03:17;;;;;;;24.92;4.50;;;;;;;;;;4891042;28;92961;-80
2023/07/03 00:05:44;;;;;;;25.48;5.13;;;;;;;;;;4904623;28;92319;-80
2023/07/03 00:08:11;;;;;;;25.08;4.55;;;;;;;;;;4889036;28;96304;-80
2023/07/03 00:10:38;;;;;;;23.95;5.18;;;;;;;;;;4899306;28;93645;-80
2023/07/03 00:13:05;;;;;;;28.58;5.50;;;;;;;;;;4900458;28;92459;-79
2023/07/03 00:15:31;;;;;;;21.33;4.68;;;;;;;;;;4902930;28;92140;-79
2023/07/03 00:17:58;;;;;;;29.77;5.97;;;;;;;;;;4892752;28;92306;-80
2023/07/03 00:20:27;;;;;;;27.17;6.65;;;;;;;;;;4898011;28;93864;-80
2023/07/03 00:22:55;;;;;;;31.00;4.93;;;;;;;;;;4899735;28;92864;-80
2023/07/03 00:25:22;;;;;;;33.90;5.72;;;;;;;;;;4894820;28;94247;-80
2023/07/03 00:27:49;;;;;;;24.27;5.05;;;;;;;;;;4902265;28;93044;-80
2023/07/03 00:30:16;;;;;;;15.80;3.63;;;;;;;;;;4885070;28;94068;-79
2023/07/03 00:32:42;;;;;;;16.20;4.07;;;;;;;;;;4906616;28;94620;-79
2023/07/03 00:35:09;;;;;;;26.75;4.88;;;;;;;;;;4893408;28;92416;-80
2023/07/03 00:37:35;;;;;;;35.67;5.18;;;;;;;;;;4907459;28;94820;-79
2023/07/03 00:40:03;;;;;;;23.63;5.00;;;;;;;;;;4900347;28;92117;-79
2023/07/03 00:42:30;;;;;;;31.25;4.75;;;;;;;;;;4900187;28;92188;-79
2023/07/03 00:44:58;;;;;;;22.17;6.03;;;;;;;;;;4892337;28;94451;-80
2023/07/03 00:47:25;;;;;;;24.20;5.05;;;;;;;;;;4900597;28;93869;-79
2023/07/03 00:49:52;;;;;;;34.17;5.18;;;;;;;;;;4900483;28;93456;-79
2023/07/03 00:52:20;;;;;;;24.25;4.32;;;;;;;;;;4891968;28;92377;-78
2023/07/03 00:54:47;;;;;;;26.13;5.40;;;;;;;;;;4896285;28;94282;-79
2023/07/03 00:57:14;;;;;;;25.33;5.65;;;;;;;;;;4891455;28;94663;-79
2023/07/03 00:59:41;;;;;;;25.80;5.13;;;;;;;;;;4900883;28;95551;-78
2023/07/03 01:02:30;;;;;;;25.50;4.57;;;;;;;;;;4910003;28;93317;-78
2023/07/03 01:05:06;;;;;;;30.83;5.78;;;;;;;;;;4885131;28;93079;-79
2023/07/03 01:07:34;;;;;;;30.08;5.22;;;;;;;;;;4883637;28;92416;-79
2023/07/03 01:10:15;;;;;;;20.65;4.68;;;;;;;;;;4902824;28;92432;-79
2023/07/03 01:12:44;;;;;;;32.88;6.43;;;;;;;;;;4889491;28;92078;-79
2023/07/03 01:15:12;;;;;;;28.38;4.75;;;;;;;;;;4897667;28;92104;-79
2023/07/03 01:17:40;;;;;;;33.88;6.45;;;;;;;;;;4892361;28;95202;-78
2023/07/03 01:20:09;;;;;;;31.83;6.15;;;;;;;;;;4913096;28;92413;-79
2023/07/03 01:22:54;;;;;;;27.23;4.80;;;;;;;;;;4911422;28;94847;-78
2023/07/03 01:25:24;;;;;;;30.52;5.22;;;;;;;;;;4900105;28;95306;-79
2023/07/03 01:27:52;;;;;;;33.17;5.82;;;;;;;;;;4906547;28;93604;-79
2023/07/03 01:30:20;;;;;;;33.85;6.10;;;;;;;;;;4919551;28;92258;-80
2023/07/03 01:32:49;;;;;;;33.28;5.75;;;;;;;;;;4896100;28;92321;-79
2023/07/03 01:35:16;;;;;;;26.88;5.70;;;;;;;;;;4905390;28;92477;-80
2023/07/03 01:37:46;;;;;;;25.90;4.68;;;;;;;;;;4912317;28;92310;-79
2023/07/03 01:40:13;;;;;;;36.72;6.20;;;;;;;;;;4859571;28;94240;-80
2023/07/03 01:42:41;;;;;;;22.73;5.13;;;;;;;;;;4898483;28;93286;-80
2023/07/03 01:45:08;;;;;;;31.05;6.22;;;;;;;;;;4901432;28;92366;-80
2023/07/03 01:47:36;;;;;;;26.50;4.82;;;;;;;;;;4920987;28;94855;-80
2023/07/03 01:50:09;;;;;;;31.27;4.93;;;;;;;;;;4910773;28;94163;-80
2023/07/03 01:52:42;;;;;;;33.15;5.45;;;;;;;;;;4884866;28;93643;-79
2023/07/03 01:55:08;;;;;;;;;;;;;;;;;;4893841;28;93135;-80
2023/07/03 01:57:37;;;;;;;23.25;4.95;;;;;;;;;;4912939;28;121069;-80
2023/07/03 02:00:06;;;;;;;29.17;5.55;;;;;;;;;;4902100;28;92122;-80
2023/07/03 02:02:39;;;;;;;29.10;5.85;;;;;;;;;;4913883;28;92107;-79
2023/07/03 02:05:08;;;;;;;28.13;6.18;;;;;;;;;;4900958;28;91551;-80
2023/07/03 02:07:35;;;;;;;31.38;6.28;;;;;;;;;;4869902;28;93810;-79
2023/07/03 02:10:03;;;;;;;38.60;7.20;;;;;;;;;;4901920;28;94602;-80
2023/07/03 02:12:30;;;;;;;39.50;6.88;;;;;;;;;;4895441;28;94643;-80
2023/07/03 02:15:00;;;;;;;31.80;5.55;;;;;;;;;;4912866;28;95010;-79
2023/07/03 02:17:27;;;;;;;40.30;5.95;;;;;;;;;;4910197;28;94178;-80
2023/07/03 02:19:54;;;;;;;31.83;6.22;;;;;;;;;;4895392;28;92622;-80
2023/07/03 02:22:21;;;;;;;31.50;5.75;;;;;;;;;;4882970;28;93095;-79
2023/07/03 02:24:50;;;;;;;31.70;6.25;;;;;;;;;;4911447;28;94571;-80
2023/07/03 02:27:19;;;;;;;29.73;6.38;;;;;;;;;;4881605;28;94256;-80
2023/07/03 02:29:46;;;;;;;29.38;5.13;;;;;;;;;;4910125;28;91906;-80
2023/07/03 02:32:13;;;;;;;33.80;6.20;;;;;;;;;;4904980;28;92930;-79
2023/07/03 02:34:40;;;;;;;29.00;5.80;;;;;;;;;;4900227;28;92403;-79
2023/07/03 02:37:09;;;;;;;32.95;6.38;;;;;;;;;;4898890;28;94915;-78
2023/07/03 02:39:36;;;;;;;30.08;6.22;;;;;;;;;;4894813;28;94031;-78
2023/07/03 02:42:02;;;;;;;21.55;4.65;;;;;;;;;;4896215;28;95234;-78
2023/07/03 02:44:30;;;;;;;33.20;5.45;;;;;;;;;;4894749;28;92945;-78
2023/07/03 02:46:56;;;;;;;29.45;5.50;;;;;;;;;;4896698;28;92831;-78
2023/07/03 02:49:27;;;;;;;41.30;6.03;;;;;;;;;;4896010;28;92318;-78
2023/07/03 02:51:55;;;;;;;43.28;7.82;;;;;;;;;;4898966;28;94131;-78
2023/07/03 02:54:23;;;;;;;40.50;8.50;;;;;;;;;;4910242;28;94525;-78
2023/07/03 02:56:50;;;;;;;46.08;7.13;;;;;;;;;;4918733;28;92956;-80
2023/07/03 02:59:17;;;;;;;35.70;6.32;;;;;;;;;;4911149;28;94795;-78
2023/07/03 03:01:43;;;;;;;38.97;6.57;;;;;;;;;;4913494;28;97114;-80
2023/07/03 03:04:10;;;;;;;45.50;7.10;;;;;;;;;;4902479;28;93255;-78
2023/07/03 03:06:37;;;;;;;32.03;7.05;;;;;;;;;;4903519;28;93191;-80
2023/07/03 03:09:05;;;;;;;38.92;6.40;;;;;;;;;;4900244;28;93314;-80
2023/07/03 03:11:33;;;;;;;30.48;6.32;;;;;;;;;;4918212;28;91941;-80
2023/07/03 03:14:00;;;;;;;33.33;6.05;;;;;;;;;;4933654;28;92046;-79
2023/07/03 03:16:27;;;;;;;36.20;7.30;;;;;;;;;;4909912;28;93730;-80
2023/07/03 03:18:54;;;;;;;44.22;8.40;;;;;;;;;;4906039;28;94435;-80
2023/07/03 03:21:20;;;;;;;38.28;6.45;;;;;;;;;;4920578;28;93511;-80
2023/07/03 03:23:47;;;;;;;32.42;6.85;;;;;;;;;;4920579;28;94243;-80
2023/07/03 03:26:15;;;;;;;34.95;6.07;;;;;;;;;;4904726;28;94665;-80
2023/07/03 03:28:42;;;;;;;43.97;6.60;;;;;;;;;;4918610;28;92388;-80
2023/07/03 03:31:09;;;;;;;38.78;6.57;;;;;;;;;;4879796;28;92033;-77
2023/07/03 03:33:43;;;;;;;35.30;6.30;;;;;;;;;;4879945;28;93834;-77
2023/07/03 03:36:10;;;;;;;44.60;7.10;;;;;;;;;;4900154;28;94945;-78
2023/07/03 03:38:37;;;;;;;35.15;5.60;;;;;;;;;;4895214;28;94908;-78
2023/07/03 03:41:04;;;;;;;26.02;5.55;;;;;;;;;;4895204;28;94739;-78
2023/07/03 03:43:35;;;;;;;31.60;6.38;;;;;;;;;;4906306;28;92154;-78
2023/07/03 03:46:02;;;;;;;29.45;5.43;;;;;;;;;;4900631;28;92526;-79
2023/07/03 03:48:30;;;;;;;44.30;8.93;;;;;;;;;;4886831;28;92394;-79
2023/07/03 03:51:00;;;;;;;32.90;5.90;;;;;;;;;;4901259;28;94934;-78
2023/07/03 03:53:28;;;;;;;33.15;6.30;;;;;;;;;;4896890;28;95355;-77
2023/07/03 03:55:55;;;;;;;32.13;5.93;;;;;;;;;;4912501;28;92194;-79
2023/07/03 03:58:22;;;;;;;26.20;5.25;;;;;;;;;;4896538;28;92518;-79
2023/07/03 04:00:52;;;;;;;31.75;5.75;;;;;;;;;;4906127;28;92489;-78
2023/07/03 04:03:18;;;;;;;35.17;6.90;;;;;;;;;;4899204;28;92477;-79
2023/07/03 04:05:45;;;;;;;40.05;6.28;;;;;;;;;;4909033;28;91619;-79
2023/07/03 04:08:12;;;;;;;34.70;6.75;;;;;;;;;;4895193;28;91904;-79
2023/07/03 04:10:39;;;;;;;30.98;5.32;;;;;;;;;;4908016;28;93690;-78
2023/07/03 04:13:06;;;;;;;35.10;5.80;;;;;;;;;;4910778;28;92128;-79
2023/07/03 04:15:33;;;;;;;32.78;6.10;;;;;;;;;;4909836;28;94677;-79
2023/07/03 04:18:00;;;;;;;33.20;6.03;;;;;;;;;;4924002;28;94065;-80
2023/07/03 04:20:27;;;;;;;32.88;6.18;;;;;;;;;;4912516;28;93951;-80
2023/07/03 04:22:54;;;;;;;37.60;7.32;;;;;;;;;;4923863;28;92903;-80
2023/07/03 04:25:21;;;;;;;36.50;7.25;;;;;;;;;;4920295;28;93057;-79
2023/07/03 04:27:48;;;;;;;27.92;6.40;;;;;;;;;;4916487;28;92276;-79
2023/07/03 04:30:15;;;;;;;27.45;5.88;;;;;;;;;;4904482;28;92174;-79
2023/07/03 04:32:41;;;;;;;32.08;5.80;;;;;;;;;;4919727;28;91678;-80
2023/07/03 04:35:08;;;;;;;34.63;5.88;;;;;;;;;;4915609;28;94032;-80
2023/07/03 04:37:36;;;;;;;28.33;5.82;;;;;;;;;;4922553;28;92232;-79
2023/07/03 04:40:03;;;;;;;28.10;5.00;;;;;;;;;;4915646;28;94505;-79
2023/07/03 04:42:31;;;;;;;27.75;5.45;;;;;;;;;;4909307;28;93782;-79
2023/07/03 04:45:01;;;;;;;34.85;6.22;;;;;;;;;;4901289;28;91835;-79
2023/07/03 04:47:28;;;;;;;38.05;5.55;;;;;;;;;;4906809;28;92281;-79
2023/07/03 04:49:55;;;;;;;32.60;6.32;;;;;;;;;;4899583;28;92594;-79
2023/07/03 04:52:27;;;;;;;33.08;6.50;;;;;;;;;;4897267;28;92697;-79
2023/07/03 04:54:54;;;;;;;27.40;4.57;;;;;;;;;;4888914;28;92449;-79
2023/07/03 04:57:20;;;;;;;25.60;5.30;;;;;;;;;;4884696;28;93082;-79
2023/07/03 04:59:48;;;;;;;20.55;4.90;;;;;;;;;;4897137;28;92549;-79
2023/07/03 05:02:17;;;;;;;16.65;4.18;;;;;;;;;;4911364;28;94637;-79
2023/07/03 05:04:44;;;;;;;25.65;4.10;;;;;;;;;;4917513;28;94674;-79
2023/07/03 05:07:10;;;;;;;19.17;2.90;;;;;;;;;;4913955;28;92483;-79
2023/07/03 05:09:37;;;;;;;19.83;3.00;;;;;;;;;;4913500;28;92504;-80
2023/07/03 05:12:04;;;;;;;12.43;2.88;;;;;;;;;;4905295;28;92977;-79
2023/07/03 05:14:30;;;;;;;11.40;2.85;;;;;;;;;;4892428;28;92441;-80
2023/07/03 05:16:57;;;;;;;7.22;2.50;;;;;;;;;;4907759;28;93279;-79
2023/07/03 05:19:23;;;;;;;11.55;2.45;;;;;;;;;;4898668;28;92413;-79
2023/07/03 05:21:50;;;;;;;11.15;2.53;;;;;;;;;;4890367;28;92025;-80
2023/07/03 05:24:16;;;;;;;10.68;2.45;;;;;;;;;;4899325;28;92365;-79
2023/07/03 05:26:43;;;;;;;16.13;2.45;;;;;;;;;;4893179;28;93388;-79
2023/07/03 05:29:09;;;;;;;12.02;2.15;;;;;;;;;;4918851;28;95016;-79
2023/07/03 05:31:36;;;;;;;11.80;2.13;;;;;;;;;;4904526;28;95789;-79
2023/07/03 05:34:03;;;;;;;11.82;2.33;;;;;;;;;;4902937;28;92110;-79
2023/07/03 05:36:30;;;;;;;12.38;2.00;;;;;;;;;;4918852;28;95006;-78
2023/07/03 05:38:56;;;;;;;10.90;2.15;;;;;;;;;;4886816;28;94921;-79
2023/07/03 05:41:24;;;;;;;8.18;2.33;;;;;;;;;;4917070;28;93829;-79
2023/07/03 05:43:50;;;;;;;9.50;2.25;;;;;;;;;;4903353;28;92478;-79
2023/07/03 05:46:17;;;;;;;15.30;2.20;;;;;;;;;;4911557;28;91895;-79
2023/07/03 05:48:45;;;;;;;10.23;2.58;;;;;;;;;;4902885;28;92351;-79
2023/07/03 05:51:11;;;;;;;8.00;2.35;;;;;;;;;;4907056;28;92326;-79
2023/07/03 05:53:38;;;;;;;10.77;1.90;;;;;;;;;;4902134;28;94489;-79
2023/07/03 05:56:04;;;;;;;7.40;2.15;;;;;;;;;;4902770;28;94334;-79
2023/07/03 05:58:32;;;;;;;12.07;2.22;;;;;;;;;;4902911;28;92465;-79
2023/07/03 06:01:03;;;;;;;9.98;2.63;;;;;;;;;;4904704;28;92533;-79
2023/07/03 06:03:31;;;;;;;11.27;2.08;;;;;;;;;;4912335;28;92505;-79
2023/07/03 06:05:58;;;;;;;14.25;2.67;;;;;;;;;;4905138;28;92205;-79
2023/07/03 06:08:25;;;;;;;11.82;2.30;;;;;;;;;;4914066;28;93250;-79
2023/07/03 06:10:52;;;;;;;8.38;2.00;;;;;;;;;;4903105;28;91862;-79
2023/07/03 06:13:19;;;;;;;15.55;3.00;;;;;;;;;;4901897;28;93586;-79
2023/07/03 06:15:46;;;;;;;11.35;1.85;;;;;;;;;;4917153;28;92276;-79
2023/07/03 06:18:13;;;;;;;13.90;3.25;;;;;;;;;;4901060;28;94943;-79
2023/07/03 06:20:39;;;;;;;17.75;2.88;;;;;;;;;;4899653;28;93551;-78
2023/07/03 06:23:06;;;;;;;12.32;2.13;;;;;;;;;;4902356;28;94509;-79
2023/07/03 06:25:33;;;;;;;12.18;3.13;;;;;;;;;;4891089;28;92307;-79
2023/07/03 06:28:00;;;;;;;16.52;2.28;;;;;;;;;;4906593;28;93185;-79
2023/07/03 06:30:26;;;;;;;14.70;2.53;;;;;;;;;;4910509;28;92813;-79
2023/07/03 06:32:53;;;;;;;10.75;2.35;;;;;;;;;;4905764;28;96008;-79
2023/07/03 06:35:20;;;;;;;16.77;2.97;;;;;;;;;;4919154;28;92887;-79
2023/07/03 06:37:51;;;;;;;14.80;2.28;;;;;;;;;;4925263;28;92773;-79
2023/07/03 06:40:19;;;;;;;14.80;2.40;;;;;;;;;;4922452;28;92420;-79
2023/07/03 06:42:45;;;;;;;15.80;2.40;;;;;;;;;;4909515;28;94846;-80
2023/07/03 06:45:16;;;;;;;7.05;2.28;;;;;;;;;;4893399;28;96845;-80
2023/07/03 06:47:43;;;;;;;11.65;1.98;;;;;;;;;;4912465;28;92094;-78
2023/07/03 06:50:09;;;;;;;9.70;2.28;;;;;;;;;;4926708;28;93199;-80
2023/07/03 06:52:36;;;;;;;16.10;2.65;;;;;;;;;;4904895;28;94323;-79
2023/07/03 06:55:04;;;;;;;10.20;2.65;;;;;;;;;;4905339;28;92617;-79
2023/07/03 06:57:30;;;;;;;21.02;2.25;;;;;;;;;;4911221;28;92430;-79
2023/07/03 06:59:56;;;;;;;9.20;2.20;;;;;;;;;;4915334;28;92126;-80
2023/07/03 07:02:23;;;;;;;11.82;2.35;;;;;;;;;;4926815;28;92393;-80
2023/07/03 07:04:52;;;;;;;10.15;2.10;;;;;;;;;;4908161;28;92336;-79
2023/07/03 07:07:18;;;;;;;6.90;2.05;;;;;;;;;;4909255;28;94924;-79
2023/07/03 07:09:45;;;;;;;13.82;2.70;;;;;;;;;;4918715;28;94782;-80
2023/07/03 07:12:11;;;;;;;8.48;2.80;;;;;;;;;;4928444;28;92384;-80
2023/07/03 07:14:38;;;;;;;17.10;2.58;;;;;;;;;;4907101;28;92992;-80
2023/07/03 07:17:05;;;;;;;14.05;2.50;;;;;;;;;;4923314;28;92918;-80
2023/07/03 07:19:32;;;;;;;12.95;2.70;;;;;;;;;;4906346;28;92185;-81
2023/07/03 07:21:58;;;;;;;11.77;1.85;;;;;;;;;;4906226;28;94625;-79
2023/07/03 07:24:27;;;;;;;7.97;2.13;;;;;;;;;;4925154;28;92316;-80
2023/07/03 07:26:58;;;;;;;8.25;2.00;;;;;;;;;;4911906;28;92191;-80
2023/07/03 07:29:25;;;;;;;10.38;2.65;;;;;;;;;;4925763;28;93173;-80
2023/07/03 07:31:53;;;;;;;13.65;2.78;;;;;;;;;;4887981;28;94805;-80
2023/07/03 07:34:20;;;;;;;9.68;2.33;;;;;;;;;;4925090;28;92328;-80
2023/07/03 07:36:46;;;;;;;9.70;2.25;;;;;;;;;;4917339;28;92737;-80
2023/07/03 07:39:13;;;;;;;10.55;2.33;;;;;;;;;;4907328;28;92350;-79
2023/07/03 07:41:39;;;;;;;16.88;2.50;;;;;;;;;;4919060;28;92478;-80
2023/07/03 07:44:06;;;;;;;14.07;1.98;;;;;;;;;;4903421;28;92272;-79
2023/07/03 07:46:33;;;;;;;10.82;1.88;;;;;;;;;;4899452;28;92073;-79
2023/07/03 07:49:00;;;;;;;8.38;1.73;;;;;;;;;;4899584;28;92155;-79
2023/07/03 07:51:27;;;;;;;12.23;2.30;;;;;;;;;;4903797;28;94487;-79
2023/07/03 07:53:54;;;;;;;11.10;2.10;;;;;;;;;;4913507;28;92511;-80
2023/07/03 07:56:21;;;;;;;15.88;2.50;;;;;;;;;;4920382;28;94857;-79
2023/07/03 07:58:48;;;;;;;11.63;2.25;;;;;;;;;;4903151;28;94807;-79
2023/07/03 08:01:14;;;;;;;11.30;1.95;;;;;;;;;;4922270;28;92810;-80
2023/07/03 08:03:42;;;;;;;17.00;3.65;;;;;;;;;;4915058;28;92202;-80
2023/07/03 08:06:09;;;;;;;10.25;2.47;;;;;;;;;;4898491;28;94263;-79
2023/07/03 08:08:36;;;;;;;11.20;2.55;;;;;;;;;;4924051;28;92301;-80
2023/07/03 08:11:04;;;;;;;8.40;2.38;;;;;;;;;;4907237;28;92129;-80
2023/07/03 08:13:32;;;;;;;7.00;2.08;;;;;;;;;;4920976;28;92782;-78
2023/07/03 08:15:59;;;;;;;9.57;2.22;;;;;;;;;;4876160;28;92387;-80
2023/07/03 08:18:26;;;;;;;12.90;2.20;;;;;;;;;;4902370;28;92326;-79
2023/07/03 08:20:53;;;;;;;16.98;2.80;;;;;;;;;;4913607;28;94830;-78
2023/07/03 08:23:20;;;;;;;7.65;1.90;;;;;;;;;;4916100;28;94493;-80
2023/07/03 08:25:50;;;;;;;11.98;2.65;;;;;;;;;;4886466;28;94933;-80
2023/07/03 08:28:18;;;;;;;23.17;3.22;;;;;;;;;;4911184;28;94226;-80
2023/07/03 08:30:44;;;;;;;12.23;2.25;;;;;;;;;;4907293;28;92752;-80
2023/07/03 08:33:14;;;;;;;11.98;2.53;;;;;;;;;;4901691;28;92561;-79
2023/07/03 08:35:41;;;;;;;8.73;2.70;;;;;;;;;;4918858;28;92984;-80
2023/07/03 08:38:14;;;;;;;14.20;2.50;;;;;;;;;;4887808;28;95761;-80
2023/07/03 08:40:41;;;;;;;12.35;2.33;;;;;;;;;;4911380;28;93045;-80
2023/07/03 08:43:10;;;;;;;6.60;2.03;;;;;;;;;;4924440;28;92004;-79
2023/07/03 08:45:40;;;;;;;12.40;3.15;;;;;;;;;;4923384;28;94341;-80
2023/07/03 08:48:09;;;;;;;11.15;2.75;;;;;;;;;;4903649;28;92527;-79
2023/07/03 08:50:36;;;;;;;12.68;2.40;;;;;;;;;;4888021;28;94157;-79
2023/07/03 08:53:04;;;;;;;17.80;2.50;;;;;;;;;;4908989;28;93127;-79
2023/07/03 08:55:37;;;;;;;11.10;2.20;;;;;;;;;;4906601;28;92424;-79
2023/07/03 08:58:04;;;;;;;11.02;2.13;;;;;;;;;;4889837;28;97007;-80
2023/07/03 09:00:34;;;;;;;9.13;2.47;;;;;;;;;;4908627;28;95293;-80
2023/07/03 09:03:06;;;;;;;10.40;2.17;;;;;;;;;;4909272;28;91929;-81
2023/07/03 09:05:41;;;;;;;15.27;3.20;;;;;;;;;;4925315;28;92992;-80
2023/07/03 09:08:11;;;;;;;10.05;2.15;;;;;;;;;;4916089;28;92433;-79
2023/07/03 09:10:44;;;;;;;6.18;2.13;;;;;;;;;;4912387;28;95569;-80
2023/07/03 09:13:21;;;;;;;11.15;3.10;;;;;;;;;;4908400;28;94487;-80
2023/07/03 09:15:48;;;;;;;11.00;1.80;;;;;;;;;;4906560;28;92408;-80
2023/07/03 09:18:17;;;;;;;8.93;1.92;;;;;;;;;;4922764;28;92688;-79
2023/07/03 09:20:45;;;;;;;11.15;1.77;;;;;;;;;;4922791;28;92160;-80
2023/07/03 09:23:16;;;;;;;20.42;2.00;;;;;;;;;;4908848;28;94307;-80
2023/07/03 09:25:46;;;;;;;12.02;2.40;;;;;;;;;;4905257;28;92421;-79
2023/07/03 09:28:16;;;;;;;9.75;2.25;;;;;;;;;;4899241;28;94614;-80
2023/07/03 09:30:43;;;;;;;12.85;2.03;;;;;;;;;;4919916;28;92117;-82
2023/07/03 09:33:14;;;;;;;8.93;2.00;;;;;;;;;;4880700;28;92430;-82
2023/07/03 09:35:41;;;;;;;17.92;2.58;;;;;;;;;;4917099;28;96827;-82
2023/07/03 09:38:17;;;;;;;14.02;2.53;;;;;;;;;;4902159;28;94063;-81
2023/07/03 09:40:45;;;;;;;9.88;1.77;;;;;;;;;;4908104;28;93352;-82
2023/07/03 09:43:26;;;;;;;11.18;1.90;;;;;;;;;;4925316;28;92871;-81
2023/07/03 09:46:03;;;;;;;13.10;1.95;;;;;;;;;;4923173;28;94391;-78
2023/07/03 09:48:37;;;;;;;12.73;2.15;;;;;;;;;;4916490;28;94034;-81
2023/07/03 09:51:06;;;;;;;5.68;1.63;;;;;;;;;;4889987;28;92449;-82
2023/07/03 09:53:37;;;;;;;10.77;1.80;;;;;;;;;;4900352;28;92197;-79
2023/07/03 09:56:10;;;;;;;11.27;2.42;;;;;;;;;;4907530;28;92511;-81
2023/07/03 09:58:43;;;;;;;6.60;1.83;;;;;;;;;;4905395;28;92447;-80
2023/07/03 10:01:15;;;;;;;11.25;2.05;;;;;;;;;;4910938;28;95674;-81
2023/07/03 10:04:01;;;;;;;;;;;;;;;;;;4895037;28;92279;-81
2023/07/03 10:06:29;;;;;;;12.57;2.78;;;;;;;;;;4904431;28;119785;-81
2023/07/03 10:09:04;;;;;;;19.70;2.75;;;;;;;;;;4915656;28;93165;-81
2023/07/03 10:11:40;;;;;;;6.93;1.75;;;;;;;;;;4895468;28;95921;-80
2023/07/03 10:14:08;;;;;;;9.40;2.05;;;;;;;;;;4911865;28;93245;-78
2023/07/03 10:16:36;;;;;;;9.32;1.92;;;;;;;;;;4905563;28;94264;-78
2023/07/03 10:19:03;;;;;;;13.13;1.83;;;;;;;;;;4903379;28;95437;-78
2023/07/03 10:21:30;;;;;;;8.98;1.90;;;;;;;;;;4888790;28;92345;-80
2023/07/03 10:23:58;;;;;;;6.97;1.70;;;;;;;;;;4912876;28;95390;-78
2023/07/03 10:26:31;;;;;;;8.07;2.03;;;;;;;;;;4884481;28;94908;-78
2023/07/03 10:29:00;;;;;;;8.52;2.20;;;;;;;;;;4911206;28;93200;-78
2023/07/03 10:31:29;;;;;;;13.73;2.35;;;;;;;;;;4901819;28;94361;-78
2023/07/03 10:34:03;;;;;;;15.02;2.83;;;;;;;;;;4906763;28;93390;-78
2023/07/03 10:36:31;;;;;;;11.05;3.53;;;;;;;;;;4919450;28;92277;-78
2023/07/03 10:39:05;;;;;;;13.98;2.63;;;;;;;;;;4899712;28;93050;-79
2023/07/03 10:41:37;;;;;;;11.48;2.17;;;;;;;;;;4904300;28;94541;-76
2023/07/03 10:44:07;;;;;;;11.35;1.52;;;;;;;;;;4914240;28;95390;-81
2023/07/03 10:46:37;;;;;;;14.02;2.30;;;;;;;;;;4900630;28;92445;-78
2023/07/03 10:49:06;;;;;;;17.60;2.53;;;;;;;;;;4894080;28;94442;-78
2023/07/03 10:51:44;;;;;;;12.13;2.13;;;;;;;;;;4907343;28;94739;-80
2023/07/03 10:54:17;;;;;;;11.02;2.28;;;;;;;;;;4912246;28;94572;-80
2023/07/03 10:56:50;;;;;;;13.55;2.33;;;;;;;;;;4907438;28;92509;-80
2023/07/03 10:59:23;;;;;;;12.55;2.22;;;;;;;;;;4912767;28;94693;-80
2023/07/03 11:01:56;;;;;;;11.55;2.70;;;;;;;;;;4913994;28;92427;-81
2023/07/03 11:04:41;;;;;;;17.58;2.58;;;;;;;;;;4914251;28;92995;-80
2023/07/03 11:07:13;;;;;;;14.23;2.78;;;;;;;;;;4921037;28;91980;-80
2023/07/03 11:09:51;;;;;;;12.38;2.53;;;;;;;;;;4920988;28;91752;-81
2023/07/03 11:12:41;;;;;;;19.20;3.25;;;;;;;;;;4914486;28;95883;-81
2023/07/03 11:15:07;;;;;;;21.55;3.65;;;;;;;;;;4911196;28;93950;-80
2023/07/03 11:17:39;;;;;;;17.92;3.25;;;;;;;;;;4923534;28;94662;-81
2023/07/03 11:20:35;;;;;;;14.07;2.90;;;;;;;;;;4914389;28;98276;-80
2023/07/03 11:23:07;;;;;;;15.57;3.17;;;;;;;;;;4919662;28;92404;-82
2023/07/03 11:25:45;;;;;;;13.30;3.10;;;;;;;;;;4905185;28;94000;-81
2023/07/03 11:28:36;;;;;;;16.90;3.28;;;;;;;;;;4917723;28;92478;-81
2023/07/03 11:31:03;;;;;;;;;;;;;;;;;;4923512;28;92452;-80
2023/07/03 11:33:31;;;;;;;9.07;2.20;;;;;;;;;;4907221;28;92737;-81
2023/07/03 11:36:00;;;;;;;11.68;2.65;;;;;;;;;;4923155;28;92039;-80
2023/07/03 11:38:28;;;;;;;15.98;2.28;;;;;;;;;;4928791;28;93350;-81
2023/07/03 11:41:00;;;;;;;11.02;2.38;;;;;;;;;;4925167;28;92430;-81
2023/07/03 11:43:40;;;;;;;9.70;2.22;;;;;;;;;;4906879;28;96603;-81
2023/07/03 11:46:08;;;;;;;14.75;2.78;;;;;;;;;;4891449;28;92604;-80
2023/07/03 11:48:37;;;;;;;13.63;2.40;;;;;;;;;;4903189;28;92648;-80
2023/07/03 11:51:05;;;;;;;18.63;2.53;;;;;;;;;;4918440;28;92486;-81
2023/07/03 11:53:34;;;;;;;14.35;2.17;;;;;;;;;;4916695;28;92531;-81
2023/07/03 11:56:01;;;;;;;10.00;1.60;;;;;;;;;;4920742;28;92050;-80
2023/07/03 11:58:29;;;;;;;19.55;2.72;;;;;;;;;;4907096;28;92862;-79
2023/07/03 12:01:15;;;;;;;16.48;2.13;;;;;;;;;;4904688;28;92162;-79
2023/07/03 12:03:55;;;;;;;9.43;2.00;;;;;;;;;;4911100;28;93463;-79
2023/07/03 12:06:40;;;;;;;14.63;2.83;;;;;;;;;;4906343;28;93246;-79
2023/07/03 12:09:27;;;;;;;15.52;2.92;;;;;;;;;;4896381;28;94752;-80
2023/07/03 12:11:59;;;;;;;7.30;2.20;;;;;;;;;;4902540;28;94807;-80
2023/07/03 12:14:53;;;;;;;13.73;2.70;;;;;;;;;;4912001;28;92572;-80
2023/07/03 12:17:30;;;;;;;16.25;2.33;;;;;;;;;;4906187;28;92379;-79
2023/07/03 12:20:06;;;;;;;21.85;2.67;;;;;;;;;;4922778;28;92562;-80
2023/07/03 12:22:38;;;;;;;11.60;2.00;;;;;;;;;;4906077;28;92452;-80
2023/07/03 12:25:09;;;;;;;14.50;2.70;;;;;;;;;;4930165;28;94263;-80
2023/07/03 12:27:37;;;;;;;12.55;2.92;;;;;;;;;;4906374;28;91906;-80
2023/07/03 12:30:05;;;;;;;13.90;2.53;;;;;;;;;;4904000;28;93932;-79
2023/07/03 12:32:34;;;;;;;14.18;1.60;;;;;;;;;;4919092;28;93540;-80
2023/07/03 12:35:12;;;;;;;10.80;1.77;;;;;;;;;;4919282;28;95247;-80
2023/07/03 12:37:44;;;;;;;8.50;2.35;;;;;;;;;;4920245;28;94061;-80
2023/07/03 12:40:12;;;;;;;7.00;1.83;;;;;;;;;;4921855;28;92297;-81
2023/07/03 12:42:39;;;;;;;7.22;1.67;;;;;;;;;;4920839;28;92416;-80
2023/07/03 12:45:16;;;;;;;8.77;1.58;;;;;;;;;;4917981;28;92578;-80
2023/07/03 12:47:43;;;;;;;23.45;2.20;;;;;;;;;;4918714;28;93077;-80
2023/07/03 12:50:14;;;;;;;7.75;1.58;;;;;;;;;;4904489;28;93313;-79
2023/07/03 12:52:41;;;;;;;11.13;1.73;;;;;;;;;;4921344;28;92004;-80
2023/07/03 12:55:11;;;;;;;7.30;1.42;;;;;;;;;;4906843;28;95117;-80
2023/07/03 12:57:41;;;;;;;10.13;1.63;;;;;;;;;;4912563;28;92501;-80
2023/07/03 13:00:14;;;;;;;6.68;1.20;;;;;;;;;;4919963;28;94816;-80
2023/07/03 13:02:42;;;;;;;8.90;1.20;;;;;;;;;;4924267;28;92494;-80
2023/07/03 13:05:10;;;;;;;14.43;1.92;;;;;;;;;;4902247;28;92890;-78
2023/07/03 13:07:40;;;;;;;12.73;1.92;;;;;;;;;;4899658;28;93452;-78
2023/07/03 13:10:09;;;;;;;10.25;2.20;;;;;;;;;;4915643;28;95816;-80
2023/07/03 13:12:36;;;;;;;6.18;1.60;;;;;;;;;;4904901;28;92561;-79
2023/07/03 13:15:02;;;;;;;5.93;1.42;;;;;;;;;;4922408;28;93948;-81
2023/07/03 13:17:30;;;;;;;8.27;1.88;;;;;;;;;;4898315;28;92137;-80
2023/07/03 13:20:15;;;;;;;12.77;1.55;;;;;;;;;;4926297;28;92521;-80
2023/07/03 13:22:50;;;;;;;6.28;2.03;;;;;;;;;;4906810;28;95659;-80
2023/07/03 13:25:29;;;;;;;7.22;1.45;;;;;;;;;;4878338;28;94834;-79
2023/07/03 13:27:56;;;;;;;10.00;1.33;;;;;;;;;;4904661;28;92460;-80
2023/07/03 13:30:35;;;;;;;10.00;1.48;;;;;;;;;;4906671;28;95345;-79
2023/07/03 13:33:05;;;;;;;4.47;1.30;;;;;;;;;;4906167;28;92566;-79
2023/07/03 13:35:32;;;;;;;7.93;1.75;;;;;;;;;;4909734;28;92509;-79
2023/07/03 13:38:09;;;;;;;11.60;1.42;;;;;;;;;;4918934;28;91944;-80
2023/07/03 13:40:36;;;;;;;10.38;1.35;;;;;;;;;;4917281;28;92296;-80
2023/07/03 13:43:04;;;;;;;15.68;1.63;;;;;;;;;;4923436;28;91795;-80
2023/07/03 13:45:31;;;;;;;10.00;1.70;;;;;;;;;;4895373;28;92225;-79
2023/07/03 13:47:58;;;;;;;22.13;2.47;;;;;;;;;;4916436;28;93122;-79
2023/07/03 13:50:25;;;;;;;7.10;2.08;;;;;;;;;;4903869;28;94930;-79
2023/07/03 13:52:52;;;;;;;9.85;1.77;;;;;;;;;;4916284;28;94137;-79
2023/07/03 13:55:19;;;;;;;9.32;1.77;;;;;;;;;;4892269;28;94107;-79
2023/07/03 13:57:46;;;;;;;10.23;1.27;;;;;;;;;;4915833;28;92447;-79
2023/07/03 14:00:12;;;;;;;6.60;1.35;;;;;;;;;;4905982;28;94183;-79
2023/07/03 14:02:39;;;;;;;15.02;1.67;;;;;;;;;;4919577;28;92534;-79
2023/07/03 14:05:15;;;;;;;10.27;1.83;;;;;;;;;;4915256;28;92477;-79
2023/07/03 14:07:41;;;;;;;4.70;1.23;;;;;;;;;;4912832;28;93378;-80
2023/07/03 14:10:08;;;;;;;8.43;2.13;;;;;;;;;;4922359;28;92425;-80
2023/07/03 14:12:34;;;;;;;9.55;1.27;;;;;;;;;;4924238;28;92833;-79
2023/07/03 14:15:07;;;;;;;7.47;1.60;;;;;;;;;;4913510;28;98103;-78
2023/07/03 14:17:33;;;;;;;10.32;2.10;;;;;;;;;;4918186;28;94053;-79
2023/07/03 14:20:00;;;;;;;6.22;1.50;;;;;;;;;;4905152;28;93901;-79
2023/07/03 14:22:27;;;;;;;21.25;2.28;;;;;;;;;;4919509;28;92122;-81
2023/07/03 14:24:54;;;;;;;10.45;1.98;;;;;;;;;;4901857;28;92498;-79
2023/07/03 14:27:20;;;;;;;7.70;1.70;;;;;;;;;;4910452;28;92388;-79
2023/07/03 14:29:47;;;;;;;17.98;2.47;;;;;;;;;;4932405;28;92486;-80
2023/07/03 14:32:14;;;;;;;12.27;1.67;;;;;;;;;;4916578;28;93277;-80
2023/07/03 14:34:41;;;;;;;13.00;1.33;;;;;;;;;;4911743;28;92272;-79
2023/07/03 14:37:07;;;;;;;14.43;2.40;;;;;;;;;;4928245;28;92150;-79
2023/07/03 14:39:34;;;;;;;11.60;2.50;;;;;;;;;;4918638;28;97029;-80
2023/07/03 14:42:04;;;;;;;16.33;2.83;;;;;;;;;;4906214;28;94691;-79
2023/07/03 14:44:31;;;;;;;8.77;2.42;;;;;;;;;;4909838;28;92839;-78